Omak, WA

10:38 PST le 20 décembre 2014 (GMT -0800)
Omak | Change Station
CLOSE
Current Station
Aéroport
Location: Omak,
Altitude: 1302 ft
Stations météo à proximité

Alt. 1302 ft 48.46 °N, 119.52 °W | Updated 7 minutes ago

Neige
Neige
33 ° F
Paraît 33 ° F
N
0
Vent Variable Vent de Nord

Aujourd'hui
Haut(e) -- | Bas -- ° F
--% Risque de précip.
Hier
Haut(e) -- | Bas -- ° F
Precip. -- pouce
7:46 AM 4:04 PM
Lune descendante, 2% visible
Pression 29.80 pouce
Visibilité 1.5 Miles terrestres
Nuages Nuageux 900 ft
Couvert 1500 ft
Point de rosée 32 ° F
Humidité 96%
Précipitations 0.23 pouce
Profondeur de la couche neigeuse Non disponible.
UV 0 sur 12
Pollen .10 sur 12
Qualité de l'air Non disponible.
Flu Activity Non disponible.
SPECI KOMK 201831Z AUTO 00000KT 1 1/2SM -SN BR BKN009 OVC015 01/00 A2980 RMK AO2 P0003 T00060000

More Conditions Fewer Conditions

Pression 29.80 pouce
Visibilité 1.5 Miles terrestres
Nuages Nuageux 900 ft
Couvert 1500 ft
Point de rosée 32 ° F
Humidité 96%
Précipitations 0.23 pouce
Profondeur de la couche neigeuse Non disponible.
UV 0 sur 12
Pollen .10 sur 12
Qualité de l'air Non disponible.
Flu Activity Non disponible.
SPECI KOMK 201831Z AUTO 00000KT 1 1/2SM -SN BR BKN009 OVC015 01/00 A2980 RMK AO2 P0003 T00060000

More Conditions Fewer Conditions

10-Day Weather Forecast

Almanac

Astronomie

Dec. 20, 2014 Lever Coucher
Temps réel
Crépuscule civil
Crépuscule nautique
Crépuscule astronomique
Lune
Durée de lumière visible
Longueur du jour
Tomorrow will be .
, % of the Moon is Illuminated

Extrêmes aujourd'hui

State Highs State Lows

Community

WunderPhotos

Upload Photos

1,779,244 Photos téléchargées !

WunderBlogs® & News

Nearby

Qualité de l'air

  Qualité de l'air Indice de la qualité de l'air Polluant
Not available.

Épaisseur de neige

Station Depth Altitude

Activité sismique

Ville Distance Mag. Time & Date
Minimum magnitude displayed is 2.5.

Températures des eaux côtières

Lieu Température

Stations météo à proximité